Time;durP1;ratioP1;P1;durP2;ratioP2;P2;SDS_P1;SDS_P2;PMS_P1;PMS_P2;Temp;Humidity;BMP_temperature;BMP_pressure;BME280_temperature;BME280_humidity;BME280_pressure;Samples;Min_cycle;Max_cycle;Signal;HPM_P1;HPM_P2
2022/11/24 00:00:26;;;;;;;21.80;4.43;;;-5.80;99.90;;;;;;5096261;28;20675;-77
2022/11/24 00:02:52;;;;;;;11.13;4.10;;;-4.90;99.90;;;;;;5082027;28;20317;-79
2022/11/24 00:05:17;;;;;;;18.37;4.53;;;-5.30;99.90;;;;;;5094895;28;20234;-79
2022/11/24 00:07:43;;;;;;;9.67;2.83;;;-8.60;99.90;;;;;;5077543;28;20187;-78
2022/11/24 00:10:09;;;;;;;12.73;4.20;;;-8.00;99.90;;;;;;5090270;28;20184;-78
2022/11/24 00:12:35;;;;;;;14.60;5.17;;;-6.50;99.90;;;;;;5093070;28;20587;-75
2022/11/24 00:15:01;;;;;;;17.00;4.00;;;-6.40;99.90;;;;;;5095731;28;20239;-79
2022/11/24 00:17:28;;;;;;;17.37;4.20;;;-5.50;99.90;;;;;;5087542;28;20189;-78
2022/11/24 00:19:54;;;;;;;12.67;4.33;;;-7.60;99.90;;;;;;5091254;28;20169;-77
2022/11/24 00:22:20;;;;;;;17.03;4.57;;;-8.00;99.90;;;;;;5084032;28;20236;-78
2022/11/24 00:24:46;;;;;;;15.50;5.83;;;-6.20;99.90;;;;;;5092100;28;20522;-78
2022/11/24 00:27:12;;;;;;;14.20;4.03;;;-7.10;99.90;;;;;;5095971;28;20175;-79
2022/11/24 00:29:38;;;;;;;15.53;4.83;;;-4.60;99.90;;;;;;5091069;28;20610;-79
2022/11/24 00:32:05;;;;;;;21.33;5.03;;;-6.10;99.90;;;;;;5089478;28;20176;-76
2022/11/24 00:34:33;;;;;;;15.57;5.63;;;-6.60;99.90;;;;;;5087999;28;20182;-79
2022/11/24 00:36:59;;;;;;;11.63;4.13;;;-6.00;99.90;;;;;;5083085;28;20187;-77
2022/11/24 00:39:25;;;;;;;20.23;5.60;;;-7.00;99.90;;;;;;5084426;28;20494;-76
2022/11/24 00:41:51;;;;;;;18.93;5.27;;;-6.90;99.90;;;;;;5090344;28;20179;-77
2022/11/24 00:44:17;;;;;;;12.63;4.37;;;-8.00;99.90;;;;;;5089399;28;20207;-78
2022/11/24 00:46:42;;;;;;;12.80;4.93;;;-6.90;99.90;;;;;;5090042;28;20176;-77
2022/11/24 00:49:15;;;;;;;20.20;6.07;;;-7.40;99.90;;;;;;5095437;28;20183;-77
2022/11/24 00:51:41;;;;;;;17.67;5.87;;;-7.10;99.90;;;;;;5083370;28;20742;-76
2022/11/24 00:54:08;;;;;;;28.47;6.37;;;-5.60;99.90;;;;;;5093985;28;20209;-78
2022/11/24 00:56:34;;;;;;;16.27;4.70;;;-4.40;99.90;;;;;;5090385;28;20229;-77
2022/11/24 00:59:00;;;;;;;27.63;5.43;;;-5.60;99.90;;;;;;5089549;28;20184;-78
2022/11/24 01:01:27;;;;;;;17.43;5.37;;;-5.20;99.90;;;;;;5088751;28;20191;-78
2022/11/24 01:04:04;;;;;;;20.33;4.33;;;-7.30;99.90;;;;;;5094982;28;20185;-77
2022/11/24 01:06:31;;;;;;;15.07;4.53;;;-8.00;99.90;;;;;;5098999;28;20607;-77
2022/11/24 01:08:57;;;;;;;34.23;7.50;;;-7.40;99.90;;;;;;5097788;28;20178;-78
2022/11/24 01:11:25;;;;;;;31.43;6.27;;;-4.90;99.90;;;;;;5098864;28;20206;-77
2022/11/24 01:13:58;;;;;;;23.27;4.53;;;-8.50;99.90;;;;;;5099515;28;20183;-77
2022/11/24 01:16:33;;;;;;;10.83;4.97;;;-8.90;99.90;;;;;;5091442;28;20179;-77
2022/11/24 01:18:59;;;;;;;22.80;5.37;;;-11.50;99.90;;;;;;5093396;28;20490;-78
2022/11/24 01:21:25;;;;;;;22.93;5.37;;;-8.50;99.90;;;;;;5092334;28;20183;-78
2022/11/24 01:23:51;;;;;;;39.77;6.20;;;-6.40;99.90;;;;;;5088296;28;20175;-78
2022/11/24 01:26:20;;;;;;;13.77;5.23;;;-7.80;99.90;;;;;;5086861;28;20216;-78
2022/11/24 01:28:46;;;;;;;16.73;5.80;;;-7.60;99.90;;;;;;5090900;28;20179;-78
2022/11/24 01:31:12;;;;;;;19.07;5.00;;;-8.30;99.90;;;;;;5094445;28;20263;-78
2022/11/24 01:33:38;;;;;;;16.83;5.07;;;-4.70;99.90;;;;;;5098087;28;20186;-77
2022/11/24 01:36:04;;;;;;;28.30;5.57;;;-5.00;99.90;;;;;;5086145;28;20187;-78
2022/11/24 01:38:31;;;;;;;21.10;5.83;;;-8.00;99.90;;;;;;5093251;28;20186;-76
2022/11/24 01:41:21;;;;;;;18.83;4.70;;;-5.80;99.90;;;;;;5092904;28;20189;-78
2022/11/24 01:43:48;;;;;;;21.00;4.73;;;-5.10;99.90;;;;;;5085993;28;20250;-78
2022/11/24 01:46:32;;;;;;;24.17;5.13;;;-7.00;99.90;;;;;;5092980;28;20263;-78
2022/11/24 01:49:07;;;;;;;20.43;5.97;;;-7.50;99.90;;;;;;5098329;28;20175;-78
2022/11/24 01:51:38;;;;;;;21.00;3.80;;;-5.00;99.90;;;;;;5092372;28;20645;-78
2022/11/24 01:54:09;;;;;;;18.67;5.53;;;-5.70;99.90;;;;;;5098491;28;20248;-78
2022/11/24 01:56:39;;;;;;;14.27;4.80;;;-6.00;99.90;;;;;;5081548;28;20171;-78
2022/11/24 01:59:06;;;;;;;11.80;4.60;;;-7.70;99.90;;;;;;5091921;28;20268;-78
2022/11/24 02:01:33;;;;;;;27.33;6.63;;;-8.40;99.90;;;;;;5092468;28;20591;-78
2022/11/24 02:04:02;;;;;;;27.13;6.30;;;-9.20;99.90;;;;;;5097789;28;20200;-77
2022/11/24 02:06:31;;;;;;;20.17;4.50;;;-11.40;99.90;;;;;;5089408;28;20266;-77
2022/11/24 02:09:31;;;;;;;18.07;4.77;;;-10.10;99.90;;;;;;5095556;28;20184;-78
2022/11/24 02:11:59;;;;;;;21.90;6.03;;;-9.40;99.90;;;;;;5088262;28;20261;-78
2022/11/24 02:14:26;;;;;;;17.80;5.07;;;-6.60;99.90;;;;;;5085471;28;20302;-78
2022/11/24 02:16:52;;;;;;;18.93;4.80;;;-8.00;99.90;;;;;;5097089;28;20185;-78
2022/11/24 02:19:42;;;;;;;14.53;4.67;;;-6.90;99.90;;;;;;5097866;28;20181;-78
2022/11/24 02:22:36;;;;;;;24.67;6.03;;;-8.20;99.90;;;;;;5091523;28;20658;-78
2022/11/24 02:25:11;;;;;;;23.33;6.33;;;-7.50;99.90;;;;;;5077359;28;20209;-78
2022/11/24 02:27:36;;;;;;;23.73;5.07;;;-10.30;99.90;;;;;;5091723;28;20194;-78
2022/11/24 02:30:03;;;;;;;24.20;6.50;;;-9.10;99.90;;;;;;5084712;28;20183;-78
2022/11/24 02:32:30;;;;;;;17.20;5.23;;;-9.20;99.90;;;;;;5085160;28;20956;-79
2022/11/24 02:35:01;;;;;;;16.83;5.47;;;-9.50;99.90;;;;;;5094356;28;20183;-78
2022/11/24 02:37:27;;;;;;;16.70;4.70;;;-7.50;99.90;;;;;;5094534;28;20183;-78
2022/11/24 02:39:52;;;;;;;17.50;6.03;;;-6.90;99.90;;;;;;5097185;28;20261;-79
2022/11/24 02:42:18;;;;;;;26.83;6.37;;;-8.10;99.90;;;;;;5094085;28;20596;-78
2022/11/24 02:44:49;;;;;;;17.97;5.67;;;-7.80;99.90;;;;;;5090702;28;20198;-77
2022/11/24 02:47:15;;;;;;;15.70;5.07;;;-8.70;99.90;;;;;;5094623;28;20250;-78
2022/11/24 02:49:41;;;;;;;16.33;3.93;;;-9.20;99.90;;;;;;5093317;28;20176;-78
2022/11/24 02:52:07;;;;;;;22.03;5.23;;;-7.80;99.90;;;;;;5091278;28;20202;-78
2022/11/24 02:54:33;;;;;;;16.17;4.87;;;-6.60;99.90;;;;;;5090693;28;20187;-78
2022/11/24 02:57:03;;;;;;;19.53;4.70;;;-6.50;99.90;;;;;;5097108;28;20180;-78
2022/11/24 02:59:29;;;;;;;26.13;5.60;;;-6.80;99.90;;;;;;5096997;28;20266;-77
2022/11/24 03:01:55;;;;;;;26.47;5.03;;;-7.90;99.90;;;;;;5096064;28;20183;-78
2022/11/24 03:04:20;;;;;;;20.13;5.60;;;-4.70;99.90;;;;;;5102678;28;20234;-80
2022/11/24 03:06:46;;;;;;;15.67;4.53;;;-6.20;99.90;;;;;;5102175;28;20195;-79
2022/11/24 03:09:12;;;;;;;31.13;5.97;;;-5.00;99.90;;;;;;5096746;28;20188;-79
2022/11/24 03:11:38;;;;;;;20.00;4.50;;;-5.40;99.90;;;;;;5085500;28;20230;-79
2022/11/24 03:14:04;;;;;;;13.73;3.77;;;-5.60;99.90;;;;;;5084804;28;20184;-78
2022/11/24 03:16:30;;;;;;;10.70;3.47;;;-5.30;99.90;;;;;;5088457;28;20523;-77
2022/11/24 03:18:56;;;;;;;17.37;4.77;;;-7.20;99.90;;;;;;5088452;28;20656;-77
2022/11/24 03:21:22;;;;;;;16.23;3.53;;;-7.40;99.90;;;;;;5089811;28;20450;-76
2022/11/24 03:23:48;;;;;;;11.07;3.47;;;-4.40;99.90;;;;;;5096640;28;20185;-76
2022/11/24 03:26:16;;;;;;;18.97;4.10;;;-5.30;99.90;;;;;;5086609;28;20236;-78
2022/11/24 03:28:42;;;;;;;8.23;3.40;;;-7.30;99.90;;;;;;5089627;28;20593;-78
2022/11/24 03:31:10;;;;;;;14.77;3.73;;;-7.70;99.90;;;;;;5086726;28;20215;-78
2022/11/24 03:33:36;;;;;;;10.47;1.90;;;-8.00;99.90;;;;;;5094895;28;20193;-76
2022/11/24 03:36:03;;;;;;;4.83;1.87;;;-7.90;99.90;;;;;;5087284;28;20191;-79
2022/11/24 03:38:29;;;;;;;7.97;1.97;;;-8.00;99.90;;;;;;5096326;28;20210;-78
2022/11/24 03:41:01;;;;;;;11.73;2.67;;;-8.80;99.90;;;;;;5096509;28;20210;-77
2022/11/24 03:43:27;;;;;;;9.03;2.93;;;-7.80;99.90;;;;;;5088849;28;20176;-79
2022/11/24 03:45:56;;;;;;;13.87;3.70;;;-7.40;99.90;;;;;;5090178;28;20199;-78
2022/11/24 03:48:22;;;;;;;10.37;3.20;;;-9.30;99.90;;;;;;5081376;28;20462;-79
2022/11/24 03:50:57;;;;;;;6.83;2.77;;;-6.60;99.90;;;;;;5090250;28;21027;-77
2022/11/24 03:53:25;;;;;;;13.70;2.80;;;-7.20;99.90;;;;;;5096050;28;20236;-78
2022/11/24 03:55:51;;;;;;;6.93;2.00;;;-8.20;99.90;;;;;;5094997;28;20302;-77
2022/11/24 03:58:18;;;;;;;21.63;4.17;;;-6.30;99.90;;;;;;5094103;28;20230;-78
2022/11/24 04:00:44;;;;;;;10.60;2.50;;;-8.20;99.90;;;;;;5095099;28;20179;-79
2022/11/24 04:03:10;;;;;;;7.03;1.90;;;-6.80;99.90;;;;;;5091751;28;20255;-79
2022/11/24 04:05:35;;;;;;;5.77;2.57;;;-7.30;99.90;;;;;;5084308;28;20518;-79
2022/11/24 04:08:04;;;;;;;9.90;1.83;;;-7.70;99.90;;;;;;5092206;28;20226;-79
2022/11/24 04:10:31;;;;;;;6.53;2.23;;;-6.70;99.90;;;;;;5095809;28;20183;-80
2022/11/24 04:12:57;;;;;;;7.10;2.80;;;-7.40;99.90;;;;;;5090515;28;20560;-77
2022/11/24 04:15:23;;;;;;;5.60;1.17;;;-8.50;99.90;;;;;;5089134;28;20186;-81
2022/11/24 04:17:49;;;;;;;6.50;2.10;;;-8.20;99.90;;;;;;5091460;28;20592;-76
2022/11/24 04:20:16;;;;;;;3.73;2.13;;;-9.30;99.90;;;;;;5088715;28;20193;-74
2022/11/24 04:22:42;;;;;;;6.43;1.37;;;-8.50;99.90;;;;;;5087693;28;20194;-79
2022/11/24 04:25:10;;;;;;;1.00;0.97;;;-7.60;99.90;;;;;;5078085;28;20206;-79
2022/11/24 04:27:36;;;;;;;4.53;1.37;;;-8.90;99.90;;;;;;5091501;28;20561;-78
2022/11/24 04:30:06;;;;;;;8.17;1.30;;;-9.60;99.90;;;;;;5092820;28;20182;-79
2022/11/24 04:32:32;;;;;;;5.50;1.53;;;-9.80;99.90;;;;;;5095694;28;20269;-78
2022/11/24 04:34:57;;;;;;;2.33;1.00;;;-10.10;99.90;;;;;;5089917;28;20265;-79
2022/11/24 04:37:23;;;;;;;2.93;1.07;;;-8.80;99.90;;;;;;5093024;28;20182;-77
2022/11/24 04:39:49;;;;;;;6.30;1.07;;;-7.10;99.90;;;;;;5094839;28;20456;-79
2022/11/24 04:42:15;;;;;;;1.00;0.73;;;-10.00;99.90;;;;;;5095801;28;20178;-77
2022/11/24 04:44:41;;;;;;;1.80;0.60;;;-10.20;99.90;;;;;;5092724;28;20206;-79
2022/11/24 04:47:11;;;;;;;3.27;1.13;;;-12.10;99.90;;;;;;5093475;28;20194;-76
2022/11/24 04:49:37;;;;;;;2.63;1.00;;;-11.90;99.90;;;;;;5099674;28;20182;-75
2022/11/24 04:52:03;;;;;;;1.70;0.90;;;-10.20;99.90;;;;;;5098588;28;20183;-75
2022/11/24 04:54:28;;;;;;;3.50;1.50;;;-7.80;99.90;;;;;;5099408;28;20186;-78
2022/11/24 04:56:54;;;;;;;2.27;0.90;;;-9.00;99.90;;;;;;5099279;28;20185;-78
2022/11/24 04:59:20;;;;;;;3.37;0.70;;;-7.50;99.90;;;;;;5099325;28;20244;-76
2022/11/24 05:01:46;;;;;;;2.20;0.70;;;-8.90;99.90;;;;;;5099330;28;20535;-78
2022/11/24 05:04:13;;;;;;;0.60;0.50;;;-9.30;99.90;;;;;;5090210;28;20193;-76
2022/11/24 05:06:39;;;;;;;2.10;0.63;;;-8.20;99.90;;;;;;5085382;28;20179;-78
2022/11/24 05:09:06;;;;;;;4.00;1.23;;;-9.20;99.90;;;;;;5093729;28;20193;-75
2022/11/24 05:11:33;;;;;;;3.03;0.67;;;-9.20;99.90;;;;;;5092812;28;20186;-75
2022/11/24 05:14:00;;;;;;;3.17;1.00;;;-7.90;99.90;;;;;;5087218;28;20274;-74
2022/11/24 05:16:26;;;;;;;4.07;0.93;;;-9.40;99.90;;;;;;5091924;28;20190;-77
2022/11/24 05:18:52;;;;;;;8.80;1.00;;;-8.70;99.90;;;;;;5087816;28;20198;-76
2022/11/24 05:21:18;;;;;;;3.20;0.70;;;-7.70;99.90;;;;;;5093430;28;20187;-76
2022/11/24 05:23:44;;;;;;;5.87;1.27;;;-7.70;99.90;;;;;;5090653;28;20175;-76
2022/11/24 05:26:10;;;;;;;5.77;0.97;;;-5.60;99.90;;;;;;5097317;28;20201;-76
2022/11/24 05:28:36;;;;;;;3.17;1.10;;;-8.90;99.90;;;;;;5098895;28;20214;-76
2022/11/24 05:31:04;;;;;;;3.33;1.07;;;-8.90;99.90;;;;;;5093567;28;20184;-75
2022/11/24 05:33:32;;;;;;;5.40;3.20;;;-8.30;99.90;;;;;;5094393;28;20567;-77
2022/11/24 05:36:05;;;;;;;3.80;1.37;;;-9.50;99.90;;;;;;5088230;28;20237;-75
2022/11/24 05:38:32;;;;;;;7.10;1.27;;;-10.50;99.90;;;;;;5098200;28;20179;-75
2022/11/24 05:41:04;;;;;;;7.53;1.30;;;-11.20;99.90;;;;;;5100650;28;20621;-77
2022/11/24 05:43:31;;;;;;;5.50;2.03;;;-10.20;99.90;;;;;;5091520;28;20633;-76
2022/11/24 05:46:01;;;;;;;6.03;1.10;;;-9.70;99.90;;;;;;5098294;28;20441;-77
2022/11/24 05:48:46;;;;;;;12.53;1.90;;;-9.50;99.90;;;;;;5090429;28;20190;-78
2022/11/24 05:51:12;;;;;;;8.50;1.83;;;-10.30;99.90;;;;;;5095801;28;20182;-77
2022/11/24 05:53:38;;;;;;;12.63;2.30;;;-8.90;99.90;;;;;;5098340;28;20194;-76
2022/11/24 05:56:04;;;;;;;4.93;2.03;;;-8.00;99.90;;;;;;5093112;28;20247;-78
2022/11/24 05:58:30;;;;;;;5.80;1.70;;;-8.20;99.90;;;;;;5092059;28;20187;-80
2022/11/24 06:00:56;;;;;;;7.93;2.10;;;-5.70;99.90;;;;;;5092245;28;20197;-79
2022/11/24 06:03:22;;;;;;;15.83;3.73;;;-8.10;99.90;;;;;;5087998;28;20569;-78
2022/11/24 06:05:48;;;;;;;11.97;2.97;;;-8.80;99.90;;;;;;5089713;28;20216;-79
2022/11/24 06:08:14;;;;;;;10.70;2.73;;;-8.20;99.90;;;;;;5083088;28;20660;-78
2022/11/24 06:10:40;;;;;;;9.80;2.77;;;-6.40;99.90;;;;;;5092836;28;20213;-78
2022/11/24 06:13:06;;;;;;;17.33;3.60;;;-8.40;99.90;;;;;;5092413;28;20590;-78
2022/11/24 06:15:36;;;;;;;8.97;3.00;;;-9.70;99.90;;;;;;5093105;28;20182;-75
2022/11/24 06:18:02;;;;;;;9.90;2.10;;;-10.20;99.90;;;;;;5092911;28;20247;-77
2022/11/24 06:20:28;;;;;;;9.63;3.20;;;-10.50;99.90;;;;;;5093515;28;20179;-76
2022/11/24 06:22:57;;;;;;;9.90;3.27;;;-9.60;99.90;;;;;;5096509;28;20193;-78
2022/11/24 06:25:23;;;;;;;9.27;2.77;;;-9.30;99.90;;;;;;5092404;28;20605;-77
2022/11/24 06:27:48;;;;;;;13.60;2.70;;;-8.40;99.90;;;;;;5092107;28;20286;-77
2022/11/24 06:30:14;;;;;;;14.80;3.87;;;-9.50;99.90;;;;;;5093367;28;20212;-77
2022/11/24 06:32:43;;;;;;;7.50;2.43;;;-9.20;99.90;;;;;;5096951;28;20444;-76
2022/11/24 06:35:10;;;;;;;15.33;4.40;;;-9.40;99.90;;;;;;5094918;28;20588;-77
2022/11/24 06:37:36;;;;;;;9.07;3.47;;;-10.00;99.90;;;;;;5097275;28;20433;-75
2022/11/24 06:40:03;;;;;;;13.60;2.50;;;-10.50;99.90;;;;;;5094346;28;20947;-74
2022/11/24 06:42:29;;;;;;;10.47;3.20;;;-10.10;99.90;;;;;;5095530;28;20310;-76
2022/11/24 06:44:54;;;;;;;9.30;3.13;;;-9.40;99.90;;;;;;5086244;28;20617;-77
2022/11/24 06:47:20;;;;;;;7.10;2.93;;;-8.60;99.90;;;;;;5083315;28;20189;-77
2022/11/24 06:49:46;;;;;;;5.87;2.47;;;-9.40;99.90;;;;;;5090409;28;20181;-77
2022/11/24 06:52:12;;;;;;;4.50;1.70;;;-10.20;99.90;;;;;;5084743;28;20521;-76
2022/11/24 06:54:38;;;;;;;12.97;3.20;;;-9.60;99.90;;;;;;5096992;28;20190;-79
2022/11/24 06:57:03;;;;;;;8.23;2.93;;;-9.20;99.90;;;;;;5093631;28;20210;-80
2022/11/24 06:59:29;;;;;;;12.23;2.83;;;-9.10;99.90;;;;;;5088763;28;20196;-79
2022/11/24 07:01:55;;;;;;;4.77;1.87;;;-8.50;99.90;;;;;;5088019;28;20207;-77
2022/11/24 07:04:20;;;;;;;5.40;2.07;;;-9.10;99.90;;;;;;5091177;28;20188;-80
2022/11/24 07:06:46;;;;;;;11.90;2.80;;;-8.10;99.90;;;;;;5087913;28;20236;-76
2022/11/24 07:09:13;;;;;;;11.80;3.00;;;-9.60;99.90;;;;;;5093470;28;20597;-75
2022/11/24 07:11:40;;;;;;;6.17;2.10;;;-9.00;99.90;;;;;;5095832;28;20220;-76
2022/11/24 07:14:06;;;;;;;11.53;2.37;;;-8.50;99.90;;;;;;5095168;28;20237;-78
2022/11/24 07:16:32;;;;;;;11.97;1.83;;;-9.90;99.90;;;;;;5097359;28;20478;-78
2022/11/24 07:18:59;;;;;;;10.67;4.07;;;-9.50;99.90;;;;;;5091027;28;20191;-81
2022/11/24 07:21:26;;;;;;;18.60;2.30;;;-9.30;99.90;;;;;;5089176;28;20544;-78
2022/11/24 07:23:54;;;;;;;8.37;2.07;;;-8.70;99.90;;;;;;5094175;28;20461;-76
2022/11/24 07:26:20;;;;;;;13.03;2.23;;;-9.80;99.90;;;;;;5096361;28;20465;-77
2022/11/24 07:28:49;;;;;;;10.83;1.70;;;-9.40;99.90;;;;;;5091605;28;20210;-74
2022/11/24 07:31:18;;;;;;;2.70;1.87;;;-7.40;99.90;;;;;;5095665;28;20432;-78
2022/11/24 07:33:54;;;;;;;6.00;3.20;;;-9.80;99.90;;;;;;5089244;28;20488;-78
2022/11/24 07:36:20;;;;;;;3.77;2.30;;;-9.80;99.90;;;;;;5095181;28;20184;-77
2022/11/24 07:38:47;;;;;;;8.20;2.13;;;-8.70;99.90;;;;;;5089836;28;20434;-80
2022/11/24 07:41:14;;;;;;;5.63;2.13;;;-8.20;99.90;;;;;;5094239;28;20201;-77
2022/11/24 07:43:40;;;;;;;3.63;1.63;;;-8.30;99.90;;;;;;5096072;28;20442;-79
2022/11/24 07:46:09;;;;;;;8.30;2.53;;;-8.80;99.90;;;;;;5088648;28;20217;-79
2022/11/24 07:48:35;;;;;;;11.27;2.30;;;-8.00;99.90;;;;;;5091141;28;20235;-73
2022/11/24 07:51:03;;;;;;;5.57;1.53;;;-8.30;99.90;;;;;;5093536;28;20265;-74
2022/11/24 07:53:30;;;;;;;6.90;2.50;;;-8.60;99.90;;;;;;5088322;28;20215;-80
2022/11/24 07:55:59;;;;;;;8.77;2.30;;;-8.30;99.90;;;;;;5090150;28;20460;-80
2022/11/24 07:58:27;;;;;;;7.23;3.10;;;-8.40;99.90;;;;;;5090488;28;20174;-83
2022/11/24 08:00:53;;;;;;;4.07;2.30;;;-7.80;99.90;;;;;;5095371;28;20610;-80
2022/11/24 08:03:19;;;;;;;7.10;3.03;;;-8.20;99.90;;;;;;5094855;28;20404;-77
2022/11/24 08:05:58;;;;;;;14.07;2.73;;;-8.20;99.90;;;;;;5095031;28;20644;-78
2022/11/24 08:08:25;;;;;;;9.93;2.00;;;-8.70;99.90;;;;;;5095611;28;20231;-74
2022/11/24 08:10:51;;;;;;;8.03;2.13;;;-9.10;99.90;;;;;;5082939;28;20485;-71
2022/11/24 08:13:17;;;;;;;11.30;2.10;;;-9.70;99.90;;;;;;5089815;28;20435;-75
2022/11/24 08:15:43;;;;;;;6.10;2.87;;;-9.10;99.90;;;;;;5085657;28;20436;-69
2022/11/24 08:18:10;;;;;;;9.53;2.80;;;-8.10;99.90;;;;;;5087578;28;20240;-73
2022/11/24 08:20:36;;;;;;;9.90;2.50;;;-8.10;99.90;;;;;;5105683;28;20592;-74
2022/11/24 08:23:02;;;;;;;10.27;2.67;;;-9.80;99.90;;;;;;5094535;28;20195;-81
2022/11/24 08:25:32;;;;;;;11.23;3.03;;;-10.00;99.90;;;;;;5088526;28;20206;-78
2022/11/24 08:27:58;;;;;;;12.07;2.87;;;-9.60;99.90;;;;;;5092141;28;20179;-77
2022/11/24 08:30:24;;;;;;;12.70;2.80;;;-10.50;99.90;;;;;;5089135;28;20201;-75
2022/11/24 08:32:50;;;;;;;10.37;3.10;;;-9.90;99.90;;;;;;5086251;28;20187;-78
2022/11/24 08:35:16;;;;;;;11.03;2.83;;;-8.60;99.90;;;;;;5094899;28;20197;-78
2022/11/24 08:37:42;;;;;;;12.97;2.33;;;-10.00;99.90;;;;;;5087746;28;20181;-74
2022/11/24 08:40:11;;;;;;;9.57;2.93;;;-11.50;99.90;;;;;;5095055;28;20189;-76
2022/11/24 08:42:36;;;;;;;8.87;2.50;;;-12.10;99.90;;;;;;5080360;28;20191;-73
2022/11/24 08:45:03;;;;;;;8.40;2.23;;;-11.00;99.90;;;;;;5089970;28;20659;-73
2022/11/24 08:47:28;;;;;;;11.10;3.03;;;-11.50;99.90;;;;;;5090391;28;20261;-76
2022/11/24 08:49:54;;;;;;;11.33;2.93;;;-12.80;99.90;;;;;;5094979;28;20704;-74
2022/11/24 08:52:20;;;;;;;8.27;1.90;;;-11.70;99.90;;;;;;5095015;28;20230;-81
2022/11/24 08:54:46;;;;;;;9.23;2.27;;;-12.50;99.90;;;;;;5090015;28;20214;-79
2022/11/24 08:57:13;;;;;;;12.43;3.77;;;-11.90;99.90;;;;;;5095241;28;20182;-78
2022/11/24 08:59:39;;;;;;;6.50;2.27;;;-12.00;99.90;;;;;;5081992;28;20232;-75
2022/11/24 09:02:05;;;;;;;5.37;2.30;;;-12.30;99.90;;;;;;5093736;28;20527;-81
2022/11/24 09:04:31;;;;;;;18.90;3.07;;;-11.50;99.90;;;;;;5094321;28;20191;-79
2022/11/24 09:06:57;;;;;;;9.40;2.57;;;-11.60;99.90;;;;;;5093343;28;20554;-76
2022/11/24 09:09:23;;;;;;;12.27;2.67;;;-12.60;99.90;;;;;;5085045;28;20175;-78
2022/11/24 09:11:48;;;;;;;12.80;2.87;;;-12.80;99.90;;;;;;5085268;28;20558;-80
2022/11/24 09:14:14;;;;;;;14.57;2.90;;;-12.20;99.90;;;;;;5088932;28;20194;-77
2022/11/24 09:16:41;;;;;;;8.70;2.27;;;-11.90;99.90;;;;;;5083779;28;20186;-76
2022/11/24 09:19:07;;;;;;;11.97;3.30;;;-11.70;99.90;;;;;;5083394;28;20267;-80
2022/11/24 09:21:36;;;;;;;12.17;3.50;;;-11.30;99.90;;;;;;5090357;28;20266;-78
2022/11/24 09:24:02;;;;;;;7.33;2.50;;;-12.30;99.90;;;;;;5091541;28;20218;-80
2022/11/24 09:26:31;;;;;;;9.17;3.33;;;-11.10;99.90;;;;;;5098370;28;20290;-71
2022/11/24 09:28:58;;;;;;;9.73;3.13;;;-11.50;99.90;;;;;;5090100;28;20180;-73
2022/11/24 09:31:26;;;;;;;11.20;3.13;;;-11.50;99.90;;;;;;5087834;28;20185;-74
2022/11/24 09:33:53;;;;;;;8.43;2.67;;;-11.30;99.90;;;;;;5096544;28;20197;-73
2022/11/24 09:36:19;;;;;;;10.37;2.03;;;-11.20;99.90;;;;;;5096554;28;20610;-73
2022/11/24 09:38:45;;;;;;;7.30;1.90;;;-11.70;99.90;;;;;;5090396;28;20194;-76
2022/11/24 09:41:17;;;;;;;7.43;2.93;;;-13.60;99.90;;;;;;5094624;28;20594;-76
2022/11/24 09:44:16;;;;;;;9.50;3.13;;;-12.30;99.90;;;;;;5094058;28;20191;-73
2022/11/24 09:46:57;;;;;;;10.93;2.53;;;-13.70;99.90;;;;;;5098210;28;20174;-76
2022/11/24 09:49:43;;;;;;;12.50;3.37;;;-10.60;99.90;;;;;;5098268;28;20172;-77
2022/11/24 09:52:13;;;;;;;4.80;2.50;;;-12.50;99.90;;;;;;5097813;28;20233;-73
2022/11/24 09:54:51;;;;;;;9.10;2.60;;;-11.60;99.90;;;;;;5095053;28;20194;-74
2022/11/24 09:57:23;;;;;;;16.33;2.87;;;-12.30;99.90;;;;;;5086013;28;20183;-74
2022/11/24 09:59:49;;;;;;;8.83;2.77;;;-11.60;99.90;;;;;;5080740;28;20187;-72
2022/11/24 10:02:14;;;;;;;6.13;2.27;;;-11.70;99.90;;;;;;5088771;28;20226;-73
2022/11/24 10:04:45;;;;;;;9.87;2.27;;;-12.00;99.90;;;;;;5095855;28;20498;-73
2022/11/24 10:07:28;;;;;;;4.77;2.47;;;-12.80;99.90;;;;;;5093408;28;20544;-75
2022/11/24 10:10:16;;;;;;;10.57;2.83;;;-12.70;99.90;;;;;;5093305;28;20231;-75
2022/11/24 10:12:44;;;;;;;8.43;2.77;;;-13.10;99.90;;;;;;5085037;28;20211;-76
2022/11/24 10:15:26;;;;;;;14.60;3.57;;;-12.70;99.90;;;;;;5083743;28;20181;-75
2022/11/24 10:18:13;;;;;;;10.93;3.20;;;-12.30;99.90;;;;;;5111689;27;20187;-77
2022/11/24 10:20:43;;;;;;;9.30;2.17;;;-12.50;99.90;;;;;;5089509;28;20254;-74
2022/11/24 10:23:27;;;;;;;12.67;3.57;;;-11.50;99.90;;;;;;5096450;28;20185;-72
2022/11/24 10:25:59;;;;;;;9.37;2.37;;;-11.10;99.90;;;;;;5092303;28;20200;-74
2022/11/24 10:28:54;;;;;;;12.10;3.83;;;-11.00;99.90;;;;;;5090532;28;20188;-73
2022/11/24 10:31:40;;;;;;;12.63;2.67;;;-10.80;99.90;;;;;;5093126;28;20793;-75
2022/11/24 10:34:14;;;;;;;20.70;4.80;;;-11.80;99.90;;;;;;5092842;28;20179;-74
2022/11/24 10:37:02;;;;;;;19.70;4.43;;;-10.80;99.90;;;;;;5088189;28;20216;-79
2022/11/24 10:39:35;;;;;;;13.77;4.00;;;-10.40;99.90;;;;;;5086972;28;20186;-74
2022/11/24 10:42:41;;;;;;;15.03;3.70;;;-10.70;99.90;;;;;;5096497;28;20176;-73
2022/11/24 10:45:16;;;;;;;12.67;3.93;;;-10.20;99.90;;;;;;5065600;28;20306;-72
2022/11/24 10:47:43;;;;;;;13.33;3.73;;;-11.70;99.90;;;;;;5078353;28;20160;-76
2022/11/24 10:50:35;;;;;;;12.63;4.20;;;-12.20;99.90;;;;;;5097109;28;20187;-73
2022/11/24 10:53:28;;;;;;;8.33;2.30;;;-12.60;99.90;;;;;;5076928;28;20256;-73
2022/11/24 10:55:58;;;;;;;12.27;3.60;;;-12.80;99.90;;;;;;5083954;28;20185;-76
2022/11/24 10:58:37;;;;;;;12.13;2.30;;;-11.90;99.90;;;;;;5087611;28;20215;-77
2022/11/24 11:01:12;;;;;;;12.23;2.77;;;-12.70;99.90;;;;;;5089887;28;20190;-77
2022/11/24 11:03:57;;;;;;;12.00;3.67;;;-13.50;99.90;;;;;;5093771;28;20204;-76
2022/11/24 11:06:31;;;;;;;10.60;3.40;;;-15.20;99.90;;;;;;5096967;28;20327;-72
2022/11/24 11:09:06;;;;;;;10.80;3.30;;;-13.80;99.90;;;;;;5095956;28;20299;-76
2022/11/24 11:11:33;;;;;;;14.53;4.87;;;-12.50;99.90;;;;;;5086434;28;20202;-75
2022/11/24 11:14:01;;;;;;;15.30;3.77;;;-9.90;99.90;;;;;;5093110;28;20500;-76
2022/11/24 11:16:58;;;;;;;19.37;3.57;;;-12.50;99.90;;;;;;5089758;28;20187;-74
2022/11/24 11:19:31;;;;;;;12.77;4.13;;;-13.50;99.90;;;;;;5087604;28;20194;-75
2022/11/24 11:22:03;;;;;;;12.97;4.37;;;-12.90;99.90;;;;;;5091683;28;20193;-77
2022/11/24 11:24:29;;;;;;;10.07;3.77;;;-11.40;99.90;;;;;;5094420;28;20273;-73
2022/11/24 11:27:03;;;;;;;12.33;3.73;;;-15.80;99.90;;;;;;5095649;28;20171;-72
2022/11/24 11:29:30;;;;;;;10.03;2.97;;;-15.70;99.90;;;;;;5091499;28;20170;-75
2022/11/24 11:31:57;;;;;;;11.30;2.87;;;-16.10;99.90;;;;;;5092712;28;20485;-74
2022/11/24 11:34:23;;;;;;;15.17;3.07;;;-15.60;99.90;;;;;;5085230;28;20597;-71
2022/11/24 11:36:52;;;;;;;17.20;4.50;;;-15.20;99.90;;;;;;5089939;28;20466;-72
2022/11/24 11:39:38;;;;;;;11.67;3.63;;;-14.80;99.90;;;;;;5088537;28;20270;-76
2022/11/24 11:42:25;;;;;;;10.47;3.57;;;-16.80;99.90;;;;;;5092238;28;20181;-77
2022/11/24 11:45:49;;;;;;;10.17;4.50;;;-14.00;99.90;;;;;;5087540;28;20310;-74
2022/11/24 11:48:31;;;;;;;10.47;3.47;;;-14.20;99.90;;;;;;5057317;28;20399;-75
2022/11/24 11:51:09;;;;;;;10.30;3.10;;;-11.80;99.90;;;;;;5088218;28;20178;-77
2022/11/24 11:53:49;;;;;;;8.07;2.70;;;-13.30;99.90;;;;;;5081565;28;20248;-74
2022/11/24 11:56:44;;;;;;;16.83;4.93;;;-9.50;99.90;;;;;;5083423;28;20839;-76
2022/11/24 11:59:37;;;;;;;14.93;3.10;;;-11.00;99.90;;;;;;5088160;28;20183;-73
2022/11/24 12:02:15;;;;;;;16.60;3.37;;;-9.80;99.90;;;;;;5091114;28;20177;-74
2022/11/24 12:05:23;;;;;;;14.30;4.17;;;-9.80;99.90;;;;;;5082151;28;20256;-75
2022/11/24 12:08:15;;;;;;;7.33;2.97;;;-12.40;99.90;;;;;;5095986;28;20170;-77
2022/11/24 12:11:14;;;;;;;20.80;3.70;;;-14.00;99.90;;;;;;5089797;28;20184;-72
2022/11/24 12:13:47;;;;;;;20.43;4.73;;;-11.60;99.90;;;;;;5084509;28;20193;-71
2022/11/24 12:16:29;;;;;;;17.67;3.33;;;-11.40;99.90;;;;;;5095581;28;20483;-72
2022/11/24 12:19:28;;;;;;;13.93;4.00;;;-10.70;99.90;;;;;;5085616;28;20257;-74
2022/11/24 12:22:19;;;;;;;16.60;4.13;;;-11.20;99.90;;;;;;5072345;28;20191;-76
2022/11/24 12:25:21;;;;;;;17.90;4.43;;;-11.90;99.90;;;;;;5090184;28;20206;-73
2022/11/24 12:27:52;;;;;;;17.37;4.47;;;-12.90;99.90;;;;;;5063499;28;20676;-75
2022/11/24 12:30:21;;;;;;;14.00;4.40;;;-10.40;99.90;;;;;;5088021;28;20170;-76
2022/11/24 12:33:04;;;;;;;14.53;4.43;;;-12.90;99.90;;;;;;5091943;28;20184;-75
2022/11/24 12:35:35;;;;;;;16.90;3.33;;;-10.70;99.90;;;;;;5088182;28;20182;-75
2022/11/24 12:38:06;;;;;;;9.97;3.10;;;-11.50;99.90;;;;;;5091177;28;20910;-74
2022/11/24 12:40:57;;;;;;;8.20;2.90;;;-10.00;99.90;;;;;;5087108;28;20175;-75
2022/11/24 12:43:34;;;;;;;12.23;4.23;;;-9.30;99.90;;;;;;5091165;28;20183;-73
2022/11/24 12:46:22;;;;;;;13.73;4.47;;;-9.80;99.90;;;;;;5094821;28;20206;-74
2022/11/24 12:49:03;;;;;;;7.87;3.30;;;-9.50;99.90;;;;;;5084614;28;20180;-78
2022/11/24 12:51:34;;;;;;;16.23;4.90;;;-7.40;99.90;;;;;;5089828;28;20250;-75
2022/11/24 12:54:04;;;;;;;19.43;4.03;;;-9.80;99.90;;;;;;5089142;28;20194;-75